sensor_id;sensor_type;location;lat;lon;timestamp;P1;durP1;ratioP1;P2;durP2;ratioP2
14770;SDS011;7477;45.222;5.688;2024-03-17T00:02:21;3.75;;;1.83;;
14770;SDS011;7477;45.222;5.688;2024-03-17T00:05:40;3.00;;;1.80;;
14770;SDS011;7477;45.222;5.688;2024-03-17T00:08:59;4.40;;;2.13;;
14770;SDS011;7477;45.222;5.688;2024-03-17T00:12:24;3.22;;;2.20;;
14770;SDS011;7477;45.222;5.688;2024-03-17T00:15:44;4.35;;;2.53;;
14770;SDS011;7477;45.222;5.688;2024-03-17T00:19:05;5.28;;;2.30;;
14770;SDS011;7477;45.222;5.688;2024-03-17T00:22:24;4.80;;;2.25;;
14770;SDS011;7477;45.222;5.688;2024-03-17T00:25:43;3.20;;;2.28;;
14770;SDS011;7477;45.222;5.688;2024-03-17T00:29:03;5.32;;;2.17;;
14770;SDS011;7477;45.222;5.688;2024-03-17T00:32:22;2.85;;;1.73;;
14770;SDS011;7477;45.222;5.688;2024-03-17T00:35:42;2.60;;;1.70;;
14770;SDS011;7477;45.222;5.688;2024-03-17T00:39:01;7.00;;;2.03;;
14770;SDS011;7477;45.222;5.688;2024-03-17T00:42:22;4.38;;;2.45;;
14770;SDS011;7477;45.222;5.688;2024-03-17T00:45:41;2.60;;;1.83;;
14770;SDS011;7477;45.222;5.688;2024-03-17T00:49:00;3.22;;;1.92;;
14770;SDS011;7477;45.222;5.688;2024-03-17T00:52:19;3.58;;;1.60;;
14770;SDS011;7477;45.222;5.688;2024-03-17T00:55:39;2.85;;;1.30;;
14770;SDS011;7477;45.222;5.688;2024-03-17T00:58:58;2.63;;;2.25;;
14770;SDS011;7477;45.222;5.688;2024-03-17T01:02:17;2.33;;;1.50;;
14770;SDS011;7477;45.222;5.688;2024-03-17T01:05:37;2.90;;;1.70;;
14770;SDS011;7477;45.222;5.688;2024-03-17T01:09:00;2.63;;;1.42;;
14770;SDS011;7477;45.222;5.688;2024-03-17T01:12:19;3.75;;;2.20;;
14770;SDS011;7477;45.222;5.688;2024-03-17T01:15:39;7.00;;;2.42;;
14770;SDS011;7477;45.222;5.688;2024-03-17T01:18:58;6.47;;;2.30;;
14770;SDS011;7477;45.222;5.688;2024-03-17T01:22:17;4.60;;;1.98;;
14770;SDS011;7477;45.222;5.688;2024-03-17T01:25:37;3.42;;;1.92;;
14770;SDS011;7477;45.222;5.688;2024-03-17T01:28:57;3.22;;;1.80;;
14770;SDS011;7477;45.222;5.688;2024-03-17T01:32:16;2.22;;;1.80;;
14770;SDS011;7477;45.222;5.688;2024-03-17T01:35:37;2.97;;;1.90;;
14770;SDS011;7477;45.222;5.688;2024-03-17T01:38:56;2.00;;;1.52;;
14770;SDS011;7477;45.222;5.688;2024-03-17T01:42:16;4.90;;;1.77;;
14770;SDS011;7477;45.222;5.688;2024-03-17T01:45:35;2.38;;;2.00;;
14770;SDS011;7477;45.222;5.688;2024-03-17T01:48:55;3.53;;;1.73;;
14770;SDS011;7477;45.222;5.688;2024-03-17T01:52:14;5.25;;;1.80;;
14770;SDS011;7477;45.222;5.688;2024-03-17T01:55:37;3.20;;;1.75;;
14770;SDS011;7477;45.222;5.688;2024-03-17T01:58:57;2.00;;;1.50;;
14770;SDS011;7477;45.222;5.688;2024-03-17T02:02:17;2.83;;;2.03;;
14770;SDS011;7477;45.222;5.688;2024-03-17T02:05:36;4.30;;;2.20;;
14770;SDS011;7477;45.222;5.688;2024-03-17T02:08:57;5.97;;;2.08;;
14770;SDS011;7477;45.222;5.688;2024-03-17T02:12:16;1.98;;;1.48;;
14770;SDS011;7477;45.222;5.688;2024-03-17T02:15:35;4.65;;;1.73;;
14770;SDS011;7477;45.222;5.688;2024-03-17T02:18:54;2.30;;;1.52;;
14770;SDS011;7477;45.222;5.688;2024-03-17T02:22:14;2.28;;;1.65;;
14770;SDS011;7477;45.222;5.688;2024-03-17T02:25:36;2.35;;;1.65;;
14770;SDS011;7477;45.222;5.688;2024-03-17T02:28:55;3.50;;;1.80;;
14770;SDS011;7477;45.222;5.688;2024-03-17T02:32:14;3.95;;;1.90;;
14770;SDS011;7477;45.222;5.688;2024-03-17T02:35:34;4.38;;;1.60;;
14770;SDS011;7477;45.222;5.688;2024-03-17T02:38:53;2.92;;;1.60;;
14770;SDS011;7477;45.222;5.688;2024-03-17T02:42:31;4.47;;;1.80;;
14770;SDS011;7477;45.222;5.688;2024-03-17T02:45:50;3.53;;;1.88;;
14770;SDS011;7477;45.222;5.688;2024-03-17T02:49:09;2.30;;;1.60;;
14770;SDS011;7477;45.222;5.688;2024-03-17T02:52:32;1.52;;;1.30;;
14770;SDS011;7477;45.222;5.688;2024-03-17T02:55:52;2.92;;;1.50;;
14770;SDS011;7477;45.222;5.688;2024-03-17T02:59:11;4.30;;;1.75;;
14770;SDS011;7477;45.222;5.688;2024-03-17T03:02:31;4.55;;;1.60;;
14770;SDS011;7477;45.222;5.688;2024-03-17T03:05:50;1.92;;;1.50;;
14770;SDS011;7477;45.222;5.688;2024-03-17T03:09:11;4.18;;;1.92;;
14770;SDS011;7477;45.222;5.688;2024-03-17T03:12:37;2.40;;;1.77;;
14770;SDS011;7477;45.222;5.688;2024-03-17T03:15:57;3.88;;;1.92;;
14770;SDS011;7477;45.222;5.688;2024-03-17T03:19:16;3.65;;;1.63;;
14770;SDS011;7477;45.222;5.688;2024-03-17T03:22:37;5.53;;;1.98;;
14770;SDS011;7477;45.222;5.688;2024-03-17T03:25:56;5.43;;;1.50;;
14770;SDS011;7477;45.222;5.688;2024-03-17T03:29:17;2.38;;;1.48;;
14770;SDS011;7477;45.222;5.688;2024-03-17T03:32:36;1.52;;;1.30;;
14770;SDS011;7477;45.222;5.688;2024-03-17T03:35:57;2.45;;;1.65;;
14770;SDS011;7477;45.222;5.688;2024-03-17T03:39:16;2.22;;;1.15;;
14770;SDS011;7477;45.222;5.688;2024-03-17T03:42:37;4.50;;;1.90;;
14770;SDS011;7477;45.222;5.688;2024-03-17T03:45:57;2.70;;;1.60;;
14770;SDS011;7477;45.222;5.688;2024-03-17T03:49:17;3.50;;;1.27;;
14770;SDS011;7477;45.222;5.688;2024-03-17T03:52:38;2.85;;;1.45;;
14770;SDS011;7477;45.222;5.688;2024-03-17T03:55:58;3.47;;;1.52;;
14770;SDS011;7477;45.222;5.688;2024-03-17T03:59:20;2.00;;;1.40;;
14770;SDS011;7477;45.222;5.688;2024-03-17T04:02:39;2.35;;;1.73;;
14770;SDS011;7477;45.222;5.688;2024-03-17T04:06:02;4.43;;;1.77;;
14770;SDS011;7477;45.222;5.688;2024-03-17T04:09:23;3.20;;;1.52;;
14770;SDS011;7477;45.222;5.688;2024-03-17T04:12:42;2.25;;;1.50;;
14770;SDS011;7477;45.222;5.688;2024-03-17T04:16:05;2.08;;;1.38;;
14770;SDS011;7477;45.222;5.688;2024-03-17T04:19:25;4.65;;;1.60;;
14770;SDS011;7477;45.222;5.688;2024-03-17T04:22:44;3.00;;;1.70;;
14770;SDS011;7477;45.222;5.688;2024-03-17T04:26:03;2.55;;;1.77;;
14770;SDS011;7477;45.222;5.688;2024-03-17T04:29:25;4.50;;;1.58;;
14770;SDS011;7477;45.222;5.688;2024-03-17T04:32:45;2.38;;;1.75;;
14770;SDS011;7477;45.222;5.688;2024-03-17T04:36:04;3.45;;;1.73;;
14770;SDS011;7477;45.222;5.688;2024-03-17T04:39:24;4.30;;;1.98;;
14770;SDS011;7477;45.222;5.688;2024-03-17T04:42:43;3.70;;;1.65;;
14770;SDS011;7477;45.222;5.688;2024-03-17T04:46:03;2.22;;;1.45;;
14770;SDS011;7477;45.222;5.688;2024-03-17T04:49:25;3.22;;;1.80;;
14770;SDS011;7477;45.222;5.688;2024-03-17T04:52:44;4.38;;;1.75;;
14770;SDS011;7477;45.222;5.688;2024-03-17T04:56:04;4.28;;;1.95;;
14770;SDS011;7477;45.222;5.688;2024-03-17T04:59:24;2.15;;;1.38;;
14770;SDS011;7477;45.222;5.688;2024-03-17T05:02:43;2.15;;;1.58;;
14770;SDS011;7477;45.222;5.688;2024-03-17T05:06:04;3.03;;;1.42;;
14770;SDS011;7477;45.222;5.688;2024-03-17T05:09:24;2.35;;;1.45;;
14770;SDS011;7477;45.222;5.688;2024-03-17T05:12:43;2.72;;;1.98;;
14770;SDS011;7477;45.222;5.688;2024-03-17T05:16:03;2.63;;;1.60;;
14770;SDS011;7477;45.222;5.688;2024-03-17T05:19:22;2.95;;;1.50;;
14770;SDS011;7477;45.222;5.688;2024-03-17T05:22:42;2.28;;;1.27;;
14770;SDS011;7477;45.222;5.688;2024-03-17T05:26:04;2.92;;;1.38;;
14770;SDS011;7477;45.222;5.688;2024-03-17T05:29:23;1.35;;;1.20;;
14770;SDS011;7477;45.222;5.688;2024-03-17T05:32:43;4.20;;;1.42;;
14770;SDS011;7477;45.222;5.688;2024-03-17T05:36:02;3.30;;;1.27;;
14770;SDS011;7477;45.222;5.688;2024-03-17T05:39:23;4.30;;;1.58;;
14770;SDS011;7477;45.222;5.688;2024-03-17T05:42:42;2.63;;;1.40;;
14770;SDS011;7477;45.222;5.688;2024-03-17T05:46:05;2.45;;;1.58;;
14770;SDS011;7477;45.222;5.688;2024-03-17T05:49:25;3.78;;;1.63;;
14770;SDS011;7477;45.222;5.688;2024-03-17T05:52:44;3.30;;;1.88;;
14770;SDS011;7477;45.222;5.688;2024-03-17T05:56:03;4.30;;;1.83;;
14770;SDS011;7477;45.222;5.688;2024-03-17T05:59:23;5.90;;;1.83;;
14770;SDS011;7477;45.222;5.688;2024-03-17T06:02:43;4.28;;;2.10;;
14770;SDS011;7477;45.222;5.688;2024-03-17T06:06:03;6.70;;;2.00;;
14770;SDS011;7477;45.222;5.688;2024-03-17T06:09:26;3.90;;;1.95;;
14770;SDS011;7477;45.222;5.688;2024-03-17T06:12:45;5.80;;;2.00;;
14770;SDS011;7477;45.222;5.688;2024-03-17T06:16:05;2.55;;;1.83;;
14770;SDS011;7477;45.222;5.688;2024-03-17T06:19:24;3.78;;;1.92;;
14770;SDS011;7477;45.222;5.688;2024-03-17T06:22:43;5.78;;;2.33;;
14770;SDS011;7477;45.222;5.688;2024-03-17T06:26:04;3.05;;;1.95;;
14770;SDS011;7477;45.222;5.688;2024-03-17T06:29:24;1.95;;;1.65;;
14770;SDS011;7477;45.222;5.688;2024-03-17T06:32:43;1.90;;;1.70;;
14770;SDS011;7477;45.222;5.688;2024-03-17T06:36:04;2.33;;;1.92;;
14770;SDS011;7477;45.222;5.688;2024-03-17T06:39:24;5.72;;;2.83;;
14770;SDS011;7477;45.222;5.688;2024-03-17T06:42:43;3.53;;;1.90;;
14770;SDS011;7477;45.222;5.688;2024-03-17T06:46:03;3.15;;;2.08;;
14770;SDS011;7477;45.222;5.688;2024-03-17T06:49:23;10.70;;;1.98;;
14770;SDS011;7477;45.222;5.688;2024-03-17T06:52:42;3.40;;;2.08;;
14770;SDS011;7477;45.222;5.688;2024-03-17T06:56:01;4.38;;;1.85;;
14770;SDS011;7477;45.222;5.688;2024-03-17T06:59:20;2.85;;;1.58;;
14770;SDS011;7477;45.222;5.688;2024-03-17T07:02:40;1.77;;;1.65;;
14770;SDS011;7477;45.222;5.688;2024-03-17T07:06:02;4.18;;;1.50;;
14770;SDS011;7477;45.222;5.688;2024-03-17T07:09:22;3.30;;;1.67;;
14770;SDS011;7477;45.222;5.688;2024-03-17T07:12:41;3.45;;;1.60;;
14770;SDS011;7477;45.222;5.688;2024-03-17T07:16:02;3.13;;;1.80;;
14770;SDS011;7477;45.222;5.688;2024-03-17T07:19:24;5.32;;;1.80;;
14770;SDS011;7477;45.222;5.688;2024-03-17T07:22:44;2.10;;;1.80;;
14770;SDS011;7477;45.222;5.688;2024-03-17T07:26:04;3.38;;;1.60;;
14770;SDS011;7477;45.222;5.688;2024-03-17T07:29:23;2.35;;;1.45;;
14770;SDS011;7477;45.222;5.688;2024-03-17T07:32:42;4.95;;;1.27;;
14770;SDS011;7477;45.222;5.688;2024-03-17T07:36:02;4.15;;;1.73;;
14770;SDS011;7477;45.222;5.688;2024-03-17T07:39:23;4.15;;;1.60;;
14770;SDS011;7477;45.222;5.688;2024-03-17T07:42:43;2.90;;;1.67;;
14770;SDS011;7477;45.222;5.688;2024-03-17T07:46:04;3.60;;;1.75;;
14770;SDS011;7477;45.222;5.688;2024-03-17T07:49:24;2.95;;;1.98;;
14770;SDS011;7477;45.222;5.688;2024-03-17T07:52:43;5.40;;;2.03;;
14770;SDS011;7477;45.222;5.688;2024-03-17T07:56:03;2.72;;;1.70;;
14770;SDS011;7477;45.222;5.688;2024-03-17T07:59:24;1.83;;;1.52;;
14770;SDS011;7477;45.222;5.688;2024-03-17T08:02:47;1.83;;;1.60;;
14770;SDS011;7477;45.222;5.688;2024-03-17T08:06:07;1.80;;;1.40;;
14770;SDS011;7477;45.222;5.688;2024-03-17T08:09:28;2.08;;;1.50;;
14770;SDS011;7477;45.222;5.688;2024-03-17T08:12:47;2.63;;;1.60;;
14770;SDS011;7477;45.222;5.688;2024-03-17T08:16:06;4.85;;;1.85;;
14770;SDS011;7477;45.222;5.688;2024-03-17T08:19:29;4.63;;;1.92;;
14770;SDS011;7477;45.222;5.688;2024-03-17T08:22:48;5.60;;;2.05;;
14770;SDS011;7477;45.222;5.688;2024-03-17T08:26:07;4.63;;;1.80;;
14770;SDS011;7477;45.222;5.688;2024-03-17T08:29:27;2.08;;;1.52;;
14770;SDS011;7477;45.222;5.688;2024-03-17T08:32:46;4.70;;;1.73;;
14770;SDS011;7477;45.222;5.688;2024-03-17T08:36:06;2.38;;;1.80;;
14770;SDS011;7477;45.222;5.688;2024-03-17T08:39:26;1.50;;;1.40;;
14770;SDS011;7477;45.222;5.688;2024-03-17T08:42:46;5.32;;;2.10;;
14770;SDS011;7477;45.222;5.688;2024-03-17T08:46:06;2.33;;;1.42;;
14770;SDS011;7477;45.222;5.688;2024-03-17T08:49:27;4.10;;;2.03;;
14770;SDS011;7477;45.222;5.688;2024-03-17T08:52:46;3.78;;;1.98;;
14770;SDS011;7477;45.222;5.688;2024-03-17T08:56:05;4.30;;;2.00;;
14770;SDS011;7477;45.222;5.688;2024-03-17T08:59:27;4.55;;;2.08;;
14770;SDS011;7477;45.222;5.688;2024-03-17T09:02:46;2.03;;;1.60;;
14770;SDS011;7477;45.222;5.688;2024-03-17T09:06:15;4.05;;;2.00;;
14770;SDS011;7477;45.222;5.688;2024-03-17T09:09:35;4.30;;;2.13;;
14770;SDS011;7477;45.222;5.688;2024-03-17T09:12:54;4.20;;;1.92;;
14770;SDS011;7477;45.222;5.688;2024-03-17T09:16:14;5.00;;;2.22;;
14770;SDS011;7477;45.222;5.688;2024-03-17T09:19:37;4.13;;;2.35;;
14770;SDS011;7477;45.222;5.688;2024-03-17T09:22:57;6.15;;;2.70;;
14770;SDS011;7477;45.222;5.688;2024-03-17T09:26:16;2.90;;;2.05;;
14770;SDS011;7477;45.222;5.688;2024-03-17T09:29:36;6.03;;;2.33;;
14770;SDS011;7477;45.222;5.688;2024-03-17T09:32:55;3.40;;;2.25;;
14770;SDS011;7477;45.222;5.688;2024-03-17T09:36:14;2.78;;;2.38;;
14770;SDS011;7477;45.222;5.688;2024-03-17T09:39:33;3.42;;;1.70;;
14770;SDS011;7477;45.222;5.688;2024-03-17T09:42:53;4.78;;;2.17;;
14770;SDS011;7477;45.222;5.688;2024-03-17T09:46:12;4.10;;;2.13;;
14770;SDS011;7477;45.222;5.688;2024-03-17T09:49:33;3.95;;;2.35;;
14770;SDS011;7477;45.222;5.688;2024-03-17T09:52:52;4.68;;;2.20;;
14770;SDS011;7477;45.222;5.688;2024-03-17T09:56:13;2.33;;;1.63;;
14770;SDS011;7477;45.222;5.688;2024-03-17T09:59:40;2.95;;;1.73;;
14770;SDS011;7477;45.222;5.688;2024-03-17T10:02:59;2.40;;;1.75;;
14770;SDS011;7477;45.222;5.688;2024-03-17T10:06:18;1.98;;;1.75;;
14770;SDS011;7477;45.222;5.688;2024-03-17T10:09:38;3.45;;;1.60;;
14770;SDS011;7477;45.222;5.688;2024-03-17T10:12:58;3.45;;;1.23;;
14770;SDS011;7477;45.222;5.688;2024-03-17T10:16:21;3.75;;;1.80;;
14770;SDS011;7477;45.222;5.688;2024-03-17T10:19:42;2.47;;;1.30;;
14770;SDS011;7477;45.222;5.688;2024-03-17T10:23:03;4.50;;;1.55;;
14770;SDS011;7477;45.222;5.688;2024-03-17T10:26:23;2.97;;;1.70;;
14770;SDS011;7477;45.222;5.688;2024-03-17T10:29:42;5.00;;;1.58;;
14770;SDS011;7477;45.222;5.688;2024-03-17T10:33:02;4.15;;;1.80;;
14770;SDS011;7477;45.222;5.688;2024-03-17T10:36:24;2.72;;;1.67;;
14770;SDS011;7477;45.222;5.688;2024-03-17T10:39:43;4.45;;;1.65;;
14770;SDS011;7477;45.222;5.688;2024-03-17T10:43:02;5.63;;;1.40;;
14770;SDS011;7477;45.222;5.688;2024-03-17T10:46:22;1.65;;;1.42;;
14770;SDS011;7477;45.222;5.688;2024-03-17T10:49:44;1.98;;;1.50;;
14770;SDS011;7477;45.222;5.688;2024-03-17T10:53:05;5.03;;;1.27;;
14770;SDS011;7477;45.222;5.688;2024-03-17T10:56:28;7.30;;;3.63;;
14770;SDS011;7477;45.222;5.688;2024-03-17T10:59:48;3.42;;;1.50;;
14770;SDS011;7477;45.222;5.688;2024-03-17T11:03:09;3.35;;;1.20;;
14770;SDS011;7477;45.222;5.688;2024-03-17T11:06:30;3.67;;;1.20;;
14770;SDS011;7477;45.222;5.688;2024-03-17T11:09:51;2.53;;;1.20;;
14770;SDS011;7477;45.222;5.688;2024-03-17T11:13:25;2.15;;;1.30;;
14770;SDS011;7477;45.222;5.688;2024-03-17T11:16:46;2.60;;;1.25;;
14770;SDS011;7477;45.222;5.688;2024-03-17T11:20:17;4.63;;;1.50;;
14770;SDS011;7477;45.222;5.688;2024-03-17T11:23:38;3.78;;;1.40;;
14770;SDS011;7477;45.222;5.688;2024-03-17T11:26:57;1.67;;;1.50;;
14770;SDS011;7477;45.222;5.688;2024-03-17T11:34:01;2.25;;;1.10;;
14770;SDS011;7477;45.222;5.688;2024-03-17T11:37:41;1.95;;;0.95;;
14770;SDS011;7477;45.222;5.688;2024-03-17T11:44:57;1.75;;;1.02;;
14770;SDS011;7477;45.222;5.688;2024-03-17T11:48:18;2.17;;;1.10;;
14770;SDS011;7477;45.222;5.688;2024-03-17T11:51:37;2.55;;;1.27;;
14770;SDS011;7477;45.222;5.688;2024-03-17T11:54:58;2.65;;;1.27;;
14770;SDS011;7477;45.222;5.688;2024-03-17T11:58:18;1.98;;;1.25;;
14770;SDS011;7477;45.222;5.688;2024-03-17T12:01:39;3.08;;;1.13;;
14770;SDS011;7477;45.222;5.688;2024-03-17T12:04:59;1.70;;;1.30;;
14770;SDS011;7477;45.222;5.688;2024-03-17T12:08:20;1.45;;;1.10;;
14770;SDS011;7477;45.222;5.688;2024-03-17T12:11:39;1.27;;;1.17;;
14770;SDS011;7477;45.222;5.688;2024-03-17T12:14:58;3.47;;;1.48;;
14770;SDS011;7477;45.222;5.688;2024-03-17T12:18:20;6.85;;;2.88;;
14770;SDS011;7477;45.222;5.688;2024-03-17T12:21:41;3.10;;;1.70;;
14770;SDS011;7477;45.222;5.688;2024-03-17T12:25:04;3.08;;;1.85;;
14770;SDS011;7477;45.222;5.688;2024-03-17T12:28:39;2.38;;;1.42;;
14770;SDS011;7477;45.222;5.688;2024-03-17T12:31:59;1.85;;;1.40;;
14770;SDS011;7477;45.222;5.688;2024-03-17T12:35:20;2.53;;;1.30;;
14770;SDS011;7477;45.222;5.688;2024-03-17T12:38:40;1.45;;;1.20;;
14770;SDS011;7477;45.222;5.688;2024-03-17T12:45:23;2.05;;;1.33;;
14770;SDS011;7477;45.222;5.688;2024-03-17T12:48:43;3.33;;;1.38;;
14770;SDS011;7477;45.222;5.688;2024-03-17T12:52:03;1.50;;;1.20;;
14770;SDS011;7477;45.222;5.688;2024-03-17T12:55:23;1.40;;;1.30;;
14770;SDS011;7477;45.222;5.688;2024-03-17T12:59:05;1.35;;;1.08;;
14770;SDS011;7477;45.222;5.688;2024-03-17T13:02:44;2.17;;;1.33;;
14770;SDS011;7477;45.222;5.688;2024-03-17T13:06:04;1.48;;;1.20;;
14770;SDS011;7477;45.222;5.688;2024-03-17T13:09:25;1.45;;;1.15;;
14770;SDS011;7477;45.222;5.688;2024-03-17T13:12:48;3.45;;;1.17;;
14770;SDS011;7477;45.222;5.688;2024-03-17T13:16:18;1.88;;;1.27;;
14770;SDS011;7477;45.222;5.688;2024-03-17T13:19:37;2.15;;;1.15;;
14770;SDS011;7477;45.222;5.688;2024-03-17T13:22:57;3.15;;;1.85;;
14770;SDS011;7477;45.222;5.688;2024-03-17T13:26:20;2.08;;;1.52;;
14770;SDS011;7477;45.222;5.688;2024-03-17T13:29:39;2.53;;;1.40;;
14770;SDS011;7477;45.222;5.688;2024-03-17T13:33:03;3.45;;;1.15;;
14770;SDS011;7477;45.222;5.688;2024-03-17T13:36:29;1.40;;;1.00;;
14770;SDS011;7477;45.222;5.688;2024-03-17T13:39:50;3.50;;;1.38;;
14770;SDS011;7477;45.222;5.688;2024-03-17T13:43:09;4.50;;;1.08;;
14770;SDS011;7477;45.222;5.688;2024-03-17T13:46:28;1.38;;;1.10;;
14770;SDS011;7477;45.222;5.688;2024-03-17T13:49:47;1.30;;;1.20;;
14770;SDS011;7477;45.222;5.688;2024-03-17T13:53:06;1.48;;;1.20;;
14770;SDS011;7477;45.222;5.688;2024-03-17T13:56:27;1.42;;;1.10;;
14770;SDS011;7477;45.222;5.688;2024-03-17T13:59:46;1.38;;;1.00;;
14770;SDS011;7477;45.222;5.688;2024-03-17T14:03:07;2.95;;;1.30;;
14770;SDS011;7477;45.222;5.688;2024-03-17T14:06:27;4.57;;;1.30;;
14770;SDS011;7477;45.222;5.688;2024-03-17T14:09:46;2.63;;;1.25;;
14770;SDS011;7477;45.222;5.688;2024-03-17T14:13:06;2.50;;;1.15;;
14770;SDS011;7477;45.222;5.688;2024-03-17T14:16:26;4.35;;;1.30;;
14770;SDS011;7477;45.222;5.688;2024-03-17T14:19:50;1.85;;;1.20;;
14770;SDS011;7477;45.222;5.688;2024-03-17T14:23:09;2.80;;;1.20;;
14770;SDS011;7477;45.222;5.688;2024-03-17T14:26:28;5.55;;;1.25;;
14770;SDS011;7477;45.222;5.688;2024-03-17T14:29:47;2.33;;;0.95;;
14770;SDS011;7477;45.222;5.688;2024-03-17T14:33:06;1.38;;;0.95;;
14770;SDS011;7477;45.222;5.688;2024-03-17T14:36:26;3.25;;;1.17;;
14770;SDS011;7477;45.222;5.688;2024-03-17T14:39:47;1.08;;;0.95;;
14770;SDS011;7477;45.222;5.688;2024-03-17T14:43:06;2.25;;;1.20;;
14770;SDS011;7477;45.222;5.688;2024-03-17T14:46:25;1.63;;;1.00;;
14770;SDS011;7477;45.222;5.688;2024-03-17T14:49:46;2.30;;;1.10;;
14770;SDS011;7477;45.222;5.688;2024-03-17T14:53:05;1.83;;;1.15;;
14770;SDS011;7477;45.222;5.688;2024-03-17T14:56:24;1.67;;;1.10;;
14770;SDS011;7477;45.222;5.688;2024-03-17T14:59:44;2.05;;;1.10;;
14770;SDS011;7477;45.222;5.688;2024-03-17T15:03:04;1.80;;;1.17;;
14770;SDS011;7477;45.222;5.688;2024-03-17T15:06:26;2.25;;;1.13;;
14770;SDS011;7477;45.222;5.688;2024-03-17T15:09:46;2.72;;;1.40;;
14770;SDS011;7477;45.222;5.688;2024-03-17T15:13:06;3.55;;;2.13;;
14770;SDS011;7477;45.222;5.688;2024-03-17T15:16:25;2.35;;;1.30;;
14770;SDS011;7477;45.222;5.688;2024-03-17T15:19:47;3.50;;;1.27;;
14770;SDS011;7477;45.222;5.688;2024-03-17T15:23:07;2.92;;;1.30;;
14770;SDS011;7477;45.222;5.688;2024-03-17T15:26:26;4.15;;;1.50;;
14770;SDS011;7477;45.222;5.688;2024-03-17T15:29:45;4.30;;;1.80;;
14770;SDS011;7477;45.222;5.688;2024-03-17T15:33:05;4.43;;;1.92;;
14770;SDS011;7477;45.222;5.688;2024-03-17T15:36:24;1.40;;;1.20;;
14770;SDS011;7477;45.222;5.688;2024-03-17T15:39:44;5.40;;;2.08;;
14770;SDS011;7477;45.222;5.688;2024-03-17T15:43:03;4.90;;;2.00;;
14770;SDS011;7477;45.222;5.688;2024-03-17T15:46:23;2.28;;;1.80;;
14770;SDS011;7477;45.222;5.688;2024-03-17T15:49:42;2.45;;;1.33;;
14770;SDS011;7477;45.222;5.688;2024-03-17T15:53:03;1.38;;;1.15;;
14770;SDS011;7477;45.222;5.688;2024-03-17T15:56:23;2.67;;;2.45;;
14770;SDS011;7477;45.222;5.688;2024-03-17T15:59:42;2.53;;;1.60;;
14770;SDS011;7477;45.222;5.688;2024-03-17T16:03:04;2.85;;;1.58;;
14770;SDS011;7477;45.222;5.688;2024-03-17T16:06:23;3.45;;;1.90;;
14770;SDS011;7477;45.222;5.688;2024-03-17T16:09:43;2.00;;;1.40;;
14770;SDS011;7477;45.222;5.688;2024-03-17T16:13:03;1.85;;;1.13;;
14770;SDS011;7477;45.222;5.688;2024-03-17T16:16:22;1.35;;;1.25;;
14770;SDS011;7477;45.222;5.688;2024-03-17T16:19:47;3.88;;;1.52;;
14770;SDS011;7477;45.222;5.688;2024-03-17T16:23:07;1.30;;;0.98;;
14770;SDS011;7477;45.222;5.688;2024-03-17T16:26:27;3.55;;;1.33;;
14770;SDS011;7477;45.222;5.688;2024-03-17T16:29:46;2.05;;;1.10;;
14770;SDS011;7477;45.222;5.688;2024-03-17T16:33:05;2.58;;;1.40;;
14770;SDS011;7477;45.222;5.688;2024-03-17T16:36:25;1.33;;;0.98;;
14770;SDS011;7477;45.222;5.688;2024-03-17T16:39:45;4.05;;;1.55;;
14770;SDS011;7477;45.222;5.688;2024-03-17T16:43:04;3.20;;;1.40;;
14770;SDS011;7477;45.222;5.688;2024-03-17T16:49:55;3.97;;;2.05;;
14770;SDS011;7477;45.222;5.688;2024-03-17T16:53:16;2.88;;;1.70;;
14770;SDS011;7477;45.222;5.688;2024-03-17T16:56:35;4.35;;;1.70;;
14770;SDS011;7477;45.222;5.688;2024-03-17T16:59:56;1.33;;;1.23;;
14770;SDS011;7477;45.222;5.688;2024-03-17T17:03:15;3.28;;;1.30;;
14770;SDS011;7477;45.222;5.688;2024-03-17T17:06:34;1.33;;;1.23;;
14770;SDS011;7477;45.222;5.688;2024-03-17T17:09:55;5.70;;;2.70;;
14770;SDS011;7477;45.222;5.688;2024-03-17T17:13:14;1.88;;;1.38;;
14770;SDS011;7477;45.222;5.688;2024-03-17T17:16:33;2.10;;;1.42;;
14770;SDS011;7477;45.222;5.688;2024-03-17T17:19:53;3.55;;;1.40;;
14770;SDS011;7477;45.222;5.688;2024-03-17T17:23:13;3.83;;;1.95;;
14770;SDS011;7477;45.222;5.688;2024-03-17T17:26:35;1.75;;;1.50;;
14770;SDS011;7477;45.222;5.688;2024-03-17T17:29:54;2.53;;;1.40;;
14770;SDS011;7477;45.222;5.688;2024-03-17T17:33:14;1.92;;;1.60;;
14770;SDS011;7477;45.222;5.688;2024-03-17T17:36:33;4.10;;;1.90;;
14770;SDS011;7477;45.222;5.688;2024-03-17T17:39:53;4.20;;;1.90;;
14770;SDS011;7477;45.222;5.688;2024-03-17T17:43:12;4.45;;;2.63;;
14770;SDS011;7477;45.222;5.688;2024-03-17T17:46:31;2.25;;;1.90;;
14770;SDS011;7477;45.222;5.688;2024-03-17T17:49:50;2.10;;;1.75;;
14770;SDS011;7477;45.222;5.688;2024-03-17T17:53:10;3.10;;;2.13;;
14770;SDS011;7477;45.222;5.688;2024-03-17T17:56:29;3.78;;;2.13;;
14770;SDS011;7477;45.222;5.688;2024-03-17T17:59:48;3.20;;;1.90;;
14770;SDS011;7477;45.222;5.688;2024-03-17T18:03:07;3.15;;;1.60;;
14770;SDS011;7477;45.222;5.688;2024-03-17T18:06:26;4.10;;;1.88;;
14770;SDS011;7477;45.222;5.688;2024-03-17T18:09:46;3.92;;;2.83;;
14770;SDS011;7477;45.222;5.688;2024-03-17T18:13:05;3.25;;;2.50;;
14770;SDS011;7477;45.222;5.688;2024-03-17T18:16:25;6.70;;;4.00;;
14770;SDS011;7477;45.222;5.688;2024-03-17T18:19:45;4.00;;;2.95;;
14770;SDS011;7477;45.222;5.688;2024-03-17T18:23:04;5.75;;;4.05;;
14770;SDS011;7477;45.222;5.688;2024-03-17T18:26:25;4.18;;;2.72;;
14770;SDS011;7477;45.222;5.688;2024-03-17T18:29:44;7.18;;;4.75;;
14770;SDS011;7477;45.222;5.688;2024-03-17T18:33:03;6.25;;;2.17;;
14770;SDS011;7477;45.222;5.688;2024-03-17T18:36:22;7.68;;;3.83;;
14770;SDS011;7477;45.222;5.688;2024-03-17T18:39:42;2.40;;;1.20;;
14770;SDS011;7477;45.222;5.688;2024-03-17T18:43:04;3.85;;;2.53;;
14770;SDS011;7477;45.222;5.688;2024-03-17T18:46:26;3.15;;;1.27;;
14770;SDS011;7477;45.222;5.688;2024-03-17T18:49:45;2.88;;;1.60;;
14770;SDS011;7477;45.222;5.688;2024-03-17T18:53:07;2.42;;;2.03;;
14770;SDS011;7477;45.222;5.688;2024-03-17T18:56:28;3.70;;;1.70;;
14770;SDS011;7477;45.222;5.688;2024-03-17T18:59:51;2.13;;;1.52;;
14770;SDS011;7477;45.222;5.688;2024-03-17T19:03:11;4.20;;;1.90;;
14770;SDS011;7477;45.222;5.688;2024-03-17T19:06:30;2.80;;;1.80;;
14770;SDS011;7477;45.222;5.688;2024-03-17T19:09:49;3.83;;;1.98;;
14770;SDS011;7477;45.222;5.688;2024-03-17T19:13:09;6.90;;;1.98;;
14770;SDS011;7477;45.222;5.688;2024-03-17T19:16:28;2.97;;;1.70;;
14770;SDS011;7477;45.222;5.688;2024-03-17T19:19:47;8.13;;;4.13;;
14770;SDS011;7477;45.222;5.688;2024-03-17T19:23:06;8.25;;;3.40;;
14770;SDS011;7477;45.222;5.688;2024-03-17T19:26:26;6.45;;;3.75;;
14770;SDS011;7477;45.222;5.688;2024-03-17T19:29:45;4.97;;;2.80;;
14770;SDS011;7477;45.222;5.688;2024-03-17T19:33:07;7.10;;;3.05;;
14770;SDS011;7477;45.222;5.688;2024-03-17T19:36:26;5.63;;;2.78;;
14770;SDS011;7477;45.222;5.688;2024-03-17T19:39:45;6.57;;;2.60;;
14770;SDS011;7477;45.222;5.688;2024-03-17T19:43:04;4.03;;;2.53;;
14770;SDS011;7477;45.222;5.688;2024-03-17T19:46:27;2.85;;;2.28;;
14770;SDS011;7477;45.222;5.688;2024-03-17T19:49:49;2.65;;;2.20;;
14770;SDS011;7477;45.222;5.688;2024-03-17T19:53:08;4.18;;;2.30;;
14770;SDS011;7477;45.222;5.688;2024-03-17T19:56:28;3.97;;;2.90;;
14770;SDS011;7477;45.222;5.688;2024-03-17T19:59:48;3.63;;;2.50;;
14770;SDS011;7477;45.222;5.688;2024-03-17T20:03:08;4.70;;;2.35;;
14770;SDS011;7477;45.222;5.688;2024-03-17T20:06:27;2.63;;;2.33;;
14770;SDS011;7477;45.222;5.688;2024-03-17T20:09:46;4.65;;;2.70;;
14770;SDS011;7477;45.222;5.688;2024-03-17T20:13:05;4.22;;;2.42;;
14770;SDS011;7477;45.222;5.688;2024-03-17T20:16:25;4.30;;;2.70;;
14770;SDS011;7477;45.222;5.688;2024-03-17T20:19:46;4.05;;;2.60;;
14770;SDS011;7477;45.222;5.688;2024-03-17T20:23:05;5.18;;;2.50;;
14770;SDS011;7477;45.222;5.688;2024-03-17T20:26:24;2.97;;;2.30;;
14770;SDS011;7477;45.222;5.688;2024-03-17T20:29:48;6.05;;;2.65;;
14770;SDS011;7477;45.222;5.688;2024-03-17T20:33:07;7.50;;;2.67;;
14770;SDS011;7477;45.222;5.688;2024-03-17T20:36:27;4.30;;;2.58;;
14770;SDS011;7477;45.222;5.688;2024-03-17T20:39:46;5.43;;;3.15;;